LNR1473 OMDB-DTTA
Flight info
| Callsign | LNR1473 |
|---|---|
| Flight time | N/A |
| Altitude | 34000 |
| Route | ANVIX R401 GIDIS G783 RIGIL/N0473F360 M628 PEKEM/N0467F280 Q332 MEDPO Y511 ITRUX/N0473F360 Y511 PMA Z712 PEGUR/N0471F380 Z712 WEJ L677 CVO L617 NABSI M872 METRU UP868 ARLOS/N0458F400 DCT DIRKA DCT TOVMA DCT DINUX DCT SONAK R781 DIDON |
| Aircraft | B738/M-SDE2E3FGHIRWXY/LB1 |
Departure
| Time | 2026-05-06 10:37 |
|---|---|
| Airport | Dubai International Airport (OMDB) |
Arrival
| Time | N/A |
|---|---|
| Airport | Tunis Carthage International Airport (DTTA) |
| Time | Latitude | Longitude | Altitude | Speed | Heading |
|---|---|---|---|---|---|
| 2026-05-06 10:00 | 25.26370 | 55.35969 | 20 ft | 0 kts | 31° |
| 2026-05-06 10:26 | 25.26363 | 55.35964 | 20 ft | 2 kts | 31° |
| 2026-05-06 10:27 | 25.26349 | 55.35955 | 20 ft | 2 kts | 31° |
| 2026-05-06 10:27 | 25.26335 | 55.35946 | 20 ft | 2 kts | 30° |
| 2026-05-06 10:27 | 25.26322 | 55.35937 | 20 ft | 2 kts | 46° |
| 2026-05-06 10:27 | 25.26312 | 55.35922 | 23 ft | 2 kts | 67° |
| 2026-05-06 10:28 | 25.26308 | 55.35905 | 24 ft | 2 kts | 83° |
| 2026-05-06 10:28 | 25.26308 | 55.35887 | 22 ft | 2 kts | 115° |
| 2026-05-06 10:28 | 25.26315 | 55.35874 | 23 ft | 1 kts | 121° |
| 2026-05-06 10:28 | 25.26316 | 55.35873 | 23 ft | 0 kts | 121° |
| 2026-05-06 10:31 | 25.26314 | 55.35875 | 23 ft | 1 kts | 120° |
| 2026-05-06 10:31 | 25.26307 | 55.35889 | 23 ft | 4 kts | 121° |
| 2026-05-06 10:32 | 25.26282 | 55.35933 | 21 ft | 9 kts | 121° |
| 2026-05-06 10:32 | 25.26241 | 55.36006 | 21 ft | 14 kts | 122° |
| 2026-05-06 10:32 | 25.26189 | 55.36097 | 21 ft | 15 kts | 121° |
| 2026-05-06 10:32 | 25.26128 | 55.36207 | 21 ft | 18 kts | 122° |
| 2026-05-06 10:33 | 25.26054 | 55.36338 | 23 ft | 22 kts | 122° |
| 2026-05-06 10:33 | 25.25969 | 55.36490 | 23 ft | 24 kts | 126° |
| 2026-05-06 10:33 | 25.25878 | 55.36651 | 21 ft | 26 kts | 122° |
| 2026-05-06 10:33 | 25.25779 | 55.36829 | 21 ft | 28 kts | 122° |
| 2026-05-06 10:34 | 25.25671 | 55.37020 | 21 ft | 29 kts | 121° |
| 2026-05-06 10:34 | 25.25567 | 55.37204 | 21 ft | 27 kts | 122° |
| 2026-05-06 10:34 | 25.25470 | 55.37377 | 21 ft | 26 kts | 122° |
| 2026-05-06 10:34 | 25.25379 | 55.37539 | 23 ft | 24 kts | 122° |
| 2026-05-06 10:35 | 25.25286 | 55.37706 | 21 ft | 27 kts | 122° |
| 2026-05-06 10:35 | 25.25179 | 55.37896 | 22 ft | 29 kts | 122° |
| 2026-05-06 10:35 | 25.25075 | 55.38080 | 20 ft | 27 kts | 122° |
| 2026-05-06 10:35 | 25.24975 | 55.38162 | 20 ft | 18 kts | 213° |
| 2026-05-06 10:36 | 25.24872 | 55.38091 | 23 ft | 17 kts | 210° |
| 2026-05-06 10:36 | 25.24803 | 55.38055 | 24 ft | 8 kts | 226° |
| 2026-05-06 10:36 | 25.24809 | 55.38021 | 28 ft | 3 kts | 304° |
| 2026-05-06 10:36 | 25.24830 | 55.37983 | 26 ft | 17 kts | 302° |
| 2026-05-06 10:37 | 25.25020 | 55.37641 | 28 ft | 87 kts | 301° |
| 2026-05-06 10:37 | 25.25449 | 55.36869 | 25 ft | 146 kts | 301° |
| 2026-05-06 10:37 | 25.25960 | 55.35963 | 210 ft | 174 kts | 302° |
| 2026-05-06 10:37 | 25.26612 | 55.34795 | 797 ft | 185 kts | 303° |
| 2026-05-06 10:38 | 25.27295 | 55.33553 | 1434 ft | 194 kts | 301° |
| 2026-05-06 10:38 | 25.28024 | 55.32235 | 1910 ft | 213 kts | 300° |
| 2026-05-06 10:38 | 25.28832 | 55.30764 | 2196 ft | 232 kts | 297° |
| 2026-05-06 10:38 | 25.29205 | 55.29027 | 2686 ft | 237 kts | 261° |
| 2026-05-06 10:39 | 25.28695 | 55.27313 | 3378 ft | 235 kts | 242° |
| 2026-05-06 10:39 | 25.27983 | 55.25675 | 4083 ft | 241 kts | 242° |
| 2026-05-06 10:39 | 25.27250 | 55.23988 | 4777 ft | 246 kts | 242° |
| 2026-05-06 10:39 | 25.26508 | 55.22266 | 5473 ft | 249 kts | 242° |
| 2026-05-06 10:40 | 25.25762 | 55.20529 | 6217 ft | 251 kts | 243° |
| 2026-05-06 10:40 | 25.25007 | 55.18772 | 6858 ft | 256 kts | 240° |
| 2026-05-06 10:40 | 25.23857 | 55.17307 | 7488 ft | 255 kts | 209° |
| 2026-05-06 10:40 | 25.22165 | 55.16717 | 7983 ft | 262 kts | 180° |
| 2026-05-06 10:41 | 25.20322 | 55.16791 | 8587 ft | 267 kts | 169° |
| 2026-05-06 10:41 | 25.18652 | 55.17577 | 9409 ft | 261 kts | 139° |
| 2026-05-06 10:41 | 25.17450 | 55.19136 | 9825 ft | 277 kts | 118° |
| 2026-05-06 10:41 | 25.16551 | 55.21042 | 10239 ft | 290 kts | 116° |
| 2026-05-06 10:42 | 25.15620 | 55.23046 | 10974 ft | 292 kts | 117° |
| 2026-05-06 10:42 | 25.14665 | 55.25069 | 11524 ft | 300 kts | 117° |
| 2026-05-06 10:42 | 25.13692 | 55.27107 | 12247 ft | 302 kts | 117° |
| 2026-05-06 10:42 | 25.12712 | 55.29151 | 13026 ft | 303 kts | 117° |
| 2026-05-06 10:43 | 25.11721 | 55.31214 | 13589 ft | 311 kts | 117° |
| 2026-05-06 10:43 | 25.10710 | 55.33318 | 14199 ft | 313 kts | 116° |
| 2026-05-06 10:43 | 25.09770 | 55.35500 | 14836 ft | 316 kts | 114° |
| 2026-05-06 10:44 | 25.07960 | 55.39976 | 16063 ft | 323 kts | 114° |
| 2026-05-06 10:44 | 25.07035 | 55.42255 | 16618 ft | 330 kts | 113° |
| 2026-05-06 10:44 | 25.06105 | 55.44650 | 16758 ft | 350 kts | 112° |
| 2026-05-06 10:44 | 25.05138 | 55.47191 | 16901 ft | 368 kts | 112° |
| 2026-05-06 10:45 | 25.04118 | 55.49863 | 17026 ft | 385 kts | 112° |
| 2026-05-06 10:45 | 25.03416 | 55.51691 | 17106 ft | 395 kts | 112° |
| 2026-05-06 10:45 | 25.02321 | 55.54532 | 17239 ft | 409 kts | 112° |
| 2026-05-06 10:45 | 25.01080 | 55.57390 | 17479 ft | 418 kts | 118° |
| 2026-05-06 10:46 | 24.99578 | 55.60147 | 17899 ft | 422 kts | 122° |
| 2026-05-06 10:46 | 24.98001 | 55.62890 | 18333 ft | 424 kts | 122° |
| 2026-05-06 10:46 | 24.96443 | 55.65662 | 18707 ft | 427 kts | 121° |
| 2026-05-06 10:46 | 24.94902 | 55.68481 | 19059 ft | 431 kts | 121° |
| 2026-05-06 10:47 | 24.93319 | 55.71310 | 19388 ft | 435 kts | 124° |
| 2026-05-06 10:47 | 24.91562 | 55.74022 | 19766 ft | 438 kts | 127° |
| 2026-05-06 10:47 | 24.89717 | 55.76708 | 20135 ft | 440 kts | 127° |
| 2026-05-06 10:47 | 24.87860 | 55.79414 | 20458 ft | 444 kts | 127° |
| 2026-05-06 10:48 | 24.86014 | 55.82158 | 20754 ft | 449 kts | 127° |
| 2026-05-06 10:48 | 24.84167 | 55.84937 | 21197 ft | 449 kts | 126° |
| 2026-05-06 10:48 | 24.82319 | 55.87707 | 21560 ft | 451 kts | 127° |
| 2026-05-06 10:48 | 24.80360 | 55.90430 | 21823 ft | 455 kts | 135° |
| 2026-05-06 10:49 | 24.77790 | 55.92444 | 22128 ft | 456 kts | 155° |
| 2026-05-06 10:49 | 24.74803 | 55.93574 | 22493 ft | 455 kts | 171° |
| 2026-05-06 10:49 | 24.71657 | 55.93785 | 22829 ft | 454 kts | 184° |
| 2026-05-06 10:49 | 24.68496 | 55.93611 | 23143 ft | 456 kts | 184° |
| 2026-05-06 10:50 | 24.65313 | 55.93454 | 23432 ft | 459 kts | 184° |
| 2026-05-06 10:50 | 24.62186 | 55.93056 | 23641 ft | 460 kts | 195° |
| 2026-05-06 10:50 | 24.59140 | 55.91872 | 23882 ft | 458 kts | 207° |
| 2026-05-06 10:50 | 24.56431 | 55.90060 | 24154 ft | 455 kts | 221° |
| 2026-05-06 10:51 | 24.54084 | 55.87815 | 24410 ft | 454 kts | 224° |
| 2026-05-06 10:51 | 24.51732 | 55.85476 | 24617 ft | 457 kts | 224° |
| 2026-05-06 10:51 | 24.49372 | 55.83137 | 24893 ft | 457 kts | 224° |
| 2026-05-06 10:51 | 24.46991 | 55.80809 | 25213 ft | 457 kts | 223° |
| 2026-05-06 10:52 | 24.44601 | 55.78499 | 25420 ft | 459 kts | 223° |
| 2026-05-06 10:52 | 24.42188 | 55.76182 | 25583 ft | 462 kts | 223° |
| 2026-05-06 10:52 | 24.39766 | 55.73863 | 25831 ft | 463 kts | 223° |
| 2026-05-06 10:52 | 24.37337 | 55.71538 | 26087 ft | 463 kts | 223° |
| 2026-05-06 10:53 | 24.34915 | 55.69208 | 26324 ft | 464 kts | 223° |
| 2026-05-06 10:53 | 24.32489 | 55.66862 | 26541 ft | 466 kts | 223° |
| 2026-05-06 10:53 | 24.30051 | 55.64508 | 26760 ft | 467 kts | 223° |
| 2026-05-06 10:53 | 24.27505 | 55.62284 | 26971 ft | 470 kts | 216° |
| 2026-05-06 10:54 | 24.24663 | 55.60503 | 27193 ft | 473 kts | 207° |
| 2026-05-06 10:54 | 24.21597 | 55.59162 | 27389 ft | 477 kts | 199° |
| 2026-05-06 10:54 | 24.18416 | 55.58224 | 27589 ft | 479 kts | 197° |
| 2026-05-06 10:54 | 24.15183 | 55.57326 | 27806 ft | 480 kts | 197° |
| 2026-05-06 10:55 | 24.11949 | 55.56418 | 28076 ft | 479 kts | 197° |
| 2026-05-06 10:55 | 24.08729 | 55.55490 | 28384 ft | 477 kts | 198° |
| 2026-05-06 10:55 | 24.05527 | 55.54547 | 28731 ft | 475 kts | 198° |
| 2026-05-06 10:55 | 24.02340 | 55.53601 | 29047 ft | 474 kts | 198° |
| 2026-05-06 10:56 | 23.99148 | 55.52653 | 29362 ft | 474 kts | 198° |
| 2026-05-06 10:56 | 23.95973 | 55.51707 | 29701 ft | 472 kts | 198° |
| 2026-05-06 10:56 | 23.92814 | 55.50766 | 30053 ft | 469 kts | 198° |
| 2026-05-06 10:56 | 23.89672 | 55.49831 | 30337 ft | 468 kts | 198° |
| 2026-05-06 10:57 | 23.86527 | 55.48895 | 30568 ft | 468 kts | 198° |
| 2026-05-06 10:57 | 23.83380 | 55.47959 | 30809 ft | 468 kts | 198° |
| 2026-05-06 10:57 | 23.80244 | 55.47025 | 31080 ft | 467 kts | 199° |
| 2026-05-06 10:57 | 23.77108 | 55.46091 | 31375 ft | 466 kts | 199° |
| 2026-05-06 10:58 | 23.73986 | 55.45160 | 31667 ft | 465 kts | 199° |
| 2026-05-06 10:58 | 23.70865 | 55.44230 | 31925 ft | 465 kts | 199° |
| 2026-05-06 10:58 | 23.67752 | 55.43303 | 32198 ft | 464 kts | 199° |
| 2026-05-06 10:58 | 23.64636 | 55.42376 | 32481 ft | 463 kts | 199° |
| 2026-05-06 10:59 | 23.61538 | 55.41454 | 32784 ft | 462 kts | 199° |
| 2026-05-06 10:59 | 23.58432 | 55.40531 | 33062 ft | 461 kts | 199° |
| 2026-05-06 10:59 | 23.55342 | 55.39612 | 33346 ft | 461 kts | 199° |
| 2026-05-06 10:59 | 23.52248 | 55.38693 | 33638 ft | 460 kts | 199° |
| 2026-05-06 11:00 | 23.49162 | 55.37780 | 33815 ft | 461 kts | 199° |
| 2026-05-06 11:00 | 23.42959 | 55.35954 | 33797 ft | 461 kts | 199° |
| 2026-05-06 11:01 | 23.36794 | 55.34144 | 33793 ft | 457 kts | 199° |
| 2026-05-06 11:01 | 23.30674 | 55.32346 | 33797 ft | 454 kts | 199° |
| 2026-05-06 11:02 | 23.24581 | 55.30556 | 33794 ft | 453 kts | 199° |
| 2026-05-06 11:02 | 23.18494 | 55.28769 | 33796 ft | 453 kts | 199° |
| 2026-05-06 11:03 | 23.12392 | 55.26980 | 33782 ft | 455 kts | 199° |
| 2026-05-06 11:03 | 23.06483 | 55.24714 | 33772 ft | 446 kts | 218° |
| 2026-05-06 11:03 | 23.04182 | 55.22512 | 33785 ft | 440 kts | 232° |
| 2026-05-06 11:04 | 23.02449 | 55.19844 | 33796 ft | 437 kts | 243° |
| 2026-05-06 11:04 | 23.01329 | 55.16792 | 33799 ft | 436 kts | 256° |
| 2026-05-06 11:04 | 23.00636 | 55.13540 | 33769 ft | 437 kts | 258° |
| 2026-05-06 11:05 | 22.99435 | 55.07049 | 33770 ft | 440 kts | 259° |
| 2026-05-06 11:05 | 22.98226 | 55.00526 | 33768 ft | 442 kts | 259° |
| 2026-05-06 11:06 | 22.96971 | 54.94034 | 33757 ft | 443 kts | 258° |
| 2026-05-06 11:06 | 22.95682 | 54.87501 | 33754 ft | 443 kts | 258° |
| 2026-05-06 11:07 | 22.94388 | 54.80982 | 33749 ft | 442 kts | 258° |
| 2026-05-06 11:07 | 22.93093 | 54.74467 | 33746 ft | 441 kts | 258° |
| 2026-05-06 11:08 | 22.91800 | 54.67971 | 33750 ft | 440 kts | 258° |
| 2026-05-06 11:08 | 22.90506 | 54.61486 | 33751 ft | 439 kts | 258° |
| 2026-05-06 11:09 | 22.89213 | 54.55018 | 33752 ft | 439 kts | 258° |
| 2026-05-06 11:09 | 22.87918 | 54.48551 | 33747 ft | 438 kts | 258° |
| 2026-05-06 11:10 | 22.86623 | 54.42101 | 33751 ft | 438 kts | 258° |
| 2026-05-06 11:10 | 22.85324 | 54.35646 | 33752 ft | 438 kts | 258° |
| 2026-05-06 11:11 | 22.84023 | 54.29195 | 33748 ft | 438 kts | 258° |
| 2026-05-06 11:11 | 22.82761 | 54.22740 | 33755 ft | 438 kts | 258° |
| 2026-05-06 11:12 | 22.81431 | 54.16292 | 33741 ft | 438 kts | 257° |
| 2026-05-06 11:12 | 22.80104 | 54.09842 | 33745 ft | 438 kts | 258° |
| 2026-05-06 11:13 | 22.78799 | 54.03430 | 33747 ft | 439 kts | 258° |
| 2026-05-06 11:13 | 22.77491 | 53.96966 | 33744 ft | 439 kts | 258° |
| 2026-05-06 11:14 | 22.76223 | 53.90484 | 33746 ft | 440 kts | 258° |
| 2026-05-06 11:14 | 22.74960 | 53.84002 | 33743 ft | 440 kts | 258° |
| 2026-05-06 11:15 | 22.73687 | 53.77517 | 33740 ft | 440 kts | 258° |
| 2026-05-06 11:15 | 22.72410 | 53.71033 | 33737 ft | 440 kts | 258° |
| 2026-05-06 11:16 | 22.71129 | 53.64542 | 33741 ft | 440 kts | 258° |
| 2026-05-06 11:16 | 22.69842 | 53.58039 | 33817 ft | 444 kts | 258° |
| 2026-05-06 11:16 | 22.69195 | 53.54772 | 34035 ft | 443 kts | 258° |
| 2026-05-06 11:17 | 22.68551 | 53.51519 | 34326 ft | 441 kts | 258° |
| 2026-05-06 11:17 | 22.67910 | 53.48274 | 34610 ft | 440 kts | 258° |
| 2026-05-06 11:17 | 22.67271 | 53.45039 | 34876 ft | 439 kts | 258° |
| 2026-05-06 11:17 | 22.66634 | 53.41820 | 35167 ft | 436 kts | 258° |
| 2026-05-06 11:18 | 22.65998 | 53.38609 | 35399 ft | 436 kts | 258° |
| 2026-05-06 11:18 | 22.65362 | 53.35397 | 35586 ft | 436 kts | 258° |
| 2026-05-06 11:18 | 22.64726 | 53.32191 | 35724 ft | 437 kts | 257° |
| 2026-05-06 11:19 | 22.63450 | 53.25775 | 35735 ft | 438 kts | 257° |
| 2026-05-06 11:19 | 22.62169 | 53.19341 | 35729 ft | 436 kts | 257° |
| 2026-05-06 11:20 | 22.60888 | 53.12928 | 35734 ft | 435 kts | 257° |
| 2026-05-06 11:20 | 22.59612 | 53.06549 | 35735 ft | 433 kts | 257° |
| 2026-05-06 11:21 | 22.58335 | 53.00180 | 35736 ft | 433 kts | 257° |
| 2026-05-06 11:21 | 22.57057 | 52.93821 | 35731 ft | 433 kts | 257° |
| 2026-05-06 11:22 | 22.55775 | 52.87457 | 35732 ft | 433 kts | 257° |
| 2026-05-06 11:22 | 22.54488 | 52.81078 | 35727 ft | 434 kts | 257° |
| 2026-05-06 11:23 | 22.53195 | 52.74686 | 35731 ft | 435 kts | 257° |
| 2026-05-06 11:23 | 22.51897 | 52.68282 | 35729 ft | 437 kts | 257° |
| 2026-05-06 11:24 | 22.50592 | 52.61856 | 35727 ft | 437 kts | 257° |
| 2026-05-06 11:24 | 22.49283 | 52.55428 | 35729 ft | 438 kts | 257° |
| 2026-05-06 11:25 | 22.47971 | 52.48995 | 35723 ft | 438 kts | 257° |
| 2026-05-06 11:25 | 22.46655 | 52.42556 | 35726 ft | 439 kts | 257° |
| 2026-05-06 11:26 | 22.45336 | 52.36115 | 35726 ft | 439 kts | 257° |
| 2026-05-06 11:26 | 22.44016 | 52.29683 | 35724 ft | 438 kts | 257° |
| 2026-05-06 11:27 | 22.42698 | 52.23278 | 35723 ft | 438 kts | 257° |
| 2026-05-06 11:27 | 22.41374 | 52.16852 | 35719 ft | 438 kts | 257° |
| 2026-05-06 11:28 | 22.40684 | 52.10340 | 35710 ft | 438 kts | 271° |
| 2026-05-06 11:28 | 22.41156 | 52.03775 | 35720 ft | 438 kts | 273° |
| 2026-05-06 11:29 | 22.41588 | 51.97215 | 35723 ft | 437 kts | 272° |
| 2026-05-06 11:29 | 22.41978 | 51.90663 | 35724 ft | 437 kts | 272° |
| 2026-05-06 11:30 | 22.42366 | 51.84102 | 35723 ft | 437 kts | 272° |
| 2026-05-06 11:30 | 22.42754 | 51.77545 | 35727 ft | 437 kts | 272° |
| 2026-05-06 11:31 | 22.43075 | 51.72095 | 35729 ft | 437 kts | 272° |
| 2026-05-06 11:31 | 22.43459 | 51.65531 | 35723 ft | 438 kts | 272° |
| 2026-05-06 11:32 | 22.43841 | 51.58955 | 35733 ft | 438 kts | 272° |
| 2026-05-06 11:32 | 22.44220 | 51.52381 | 35723 ft | 438 kts | 272° |
| 2026-05-06 11:33 | 22.44596 | 51.45808 | 35724 ft | 438 kts | 272° |
| 2026-05-06 11:33 | 22.44970 | 51.39240 | 35726 ft | 438 kts | 272° |
| 2026-05-06 11:34 | 22.45338 | 51.32716 | 35738 ft | 437 kts | 272° |
| 2026-05-06 11:34 | 22.45706 | 51.26151 | 35727 ft | 437 kts | 272° |
| 2026-05-06 11:35 | 22.46071 | 51.19598 | 35726 ft | 436 kts | 272° |
| 2026-05-06 11:35 | 22.46432 | 51.13059 | 35728 ft | 436 kts | 272° |
| 2026-05-06 11:36 | 22.46793 | 51.06523 | 35728 ft | 435 kts | 272° |
| 2026-05-06 11:36 | 22.47156 | 50.99993 | 35731 ft | 435 kts | 272° |
| 2026-05-06 11:37 | 22.47517 | 50.93469 | 35730 ft | 434 kts | 272° |
| 2026-05-06 11:37 | 22.47875 | 50.86949 | 35735 ft | 434 kts | 271° |
| 2026-05-06 11:38 | 22.48230 | 50.80427 | 35735 ft | 434 kts | 271° |
| 2026-05-06 11:38 | 22.48580 | 50.73955 | 35731 ft | 434 kts | 271° |
| 2026-05-06 11:39 | 22.48928 | 50.67448 | 35734 ft | 433 kts | 271° |
| 2026-05-06 11:39 | 22.49275 | 50.60937 | 35733 ft | 433 kts | 271° |
| 2026-05-06 11:40 | 22.49618 | 50.54434 | 35732 ft | 433 kts | 271° |
| 2026-05-06 11:40 | 22.49959 | 50.47928 | 35730 ft | 433 kts | 271° |
| 2026-05-06 11:41 | 22.50297 | 50.41418 | 35728 ft | 434 kts | 271° |
| 2026-05-06 11:41 | 22.50633 | 50.34905 | 35733 ft | 434 kts | 271° |
| 2026-05-06 11:42 | 22.50965 | 50.28423 | 35737 ft | 434 kts | 271° |
| 2026-05-06 11:42 | 22.51298 | 50.21857 | 35735 ft | 435 kts | 271° |
| 2026-05-06 11:43 | 22.51627 | 50.15325 | 35734 ft | 435 kts | 271° |
| 2026-05-06 11:43 | 22.51952 | 50.08822 | 35734 ft | 436 kts | 271° |
| 2026-05-06 11:44 | 22.52438 | 49.99000 | 35737 ft | 436 kts | 271° |
| 2026-05-06 11:44 | 22.52759 | 49.92445 | 35730 ft | 436 kts | 271° |
| 2026-05-06 11:45 | 22.53078 | 49.85884 | 35731 ft | 437 kts | 271° |
| 2026-05-06 11:45 | 22.53394 | 49.79327 | 35732 ft | 437 kts | 271° |
| 2026-05-06 11:46 | 22.53807 | 49.72775 | 35733 ft | 437 kts | 273° |
| 2026-05-06 11:46 | 22.54466 | 49.66227 | 35733 ft | 438 kts | 274° |
| 2026-05-06 11:47 | 22.55141 | 49.59685 | 35732 ft | 438 kts | 274° |
| 2026-05-06 11:47 | 22.55783 | 49.53139 | 35734 ft | 437 kts | 274° |
| 2026-05-06 11:48 | 22.56404 | 49.46589 | 35739 ft | 437 kts | 273° |
| 2026-05-06 11:48 | 22.57018 | 49.40046 | 35733 ft | 437 kts | 273° |
| 2026-05-06 11:49 | 22.57629 | 49.33496 | 35732 ft | 437 kts | 273° |
| 2026-05-06 11:49 | 22.58238 | 49.26957 | 35737 ft | 437 kts | 273° |
| 2026-05-06 11:50 | 22.58839 | 49.20471 | 35732 ft | 436 kts | 273° |
| 2026-05-06 11:50 | 22.59442 | 49.13941 | 35735 ft | 436 kts | 273° |
| 2026-05-06 11:51 | 22.60041 | 49.07421 | 35738 ft | 436 kts | 273° |
| 2026-05-06 11:51 | 22.60637 | 49.00896 | 35735 ft | 435 kts | 273° |
| 2026-05-06 11:52 | 22.61231 | 48.94373 | 35734 ft | 436 kts | 273° |
| 2026-05-06 11:52 | 22.61823 | 48.87847 | 35741 ft | 436 kts | 273° |
| 2026-05-06 11:53 | 22.62412 | 48.81319 | 35745 ft | 436 kts | 273° |
| 2026-05-06 11:53 | 22.62999 | 48.74782 | 35739 ft | 436 kts | 273° |
| 2026-05-06 11:54 | 22.63583 | 48.68243 | 35739 ft | 436 kts | 273° |
| 2026-05-06 11:54 | 22.64164 | 48.61714 | 35744 ft | 436 kts | 273° |
| 2026-05-06 11:55 | 22.64743 | 48.55185 | 35741 ft | 436 kts | 273° |
| 2026-05-06 11:55 | 22.65319 | 48.48651 | 35744 ft | 435 kts | 273° |
| 2026-05-06 11:56 | 22.65891 | 48.42128 | 35743 ft | 435 kts | 272° |
| 2026-05-06 11:56 | 22.66461 | 48.35606 | 35747 ft | 435 kts | 272° |
| 2026-05-06 11:57 | 22.67024 | 48.29122 | 35742 ft | 435 kts | 272° |
| 2026-05-06 11:57 | 22.67589 | 48.22597 | 35759 ft | 435 kts | 272° |
| 2026-05-06 11:58 | 22.68150 | 48.16081 | 35739 ft | 435 kts | 272° |
| 2026-05-06 11:58 | 22.68709 | 48.09555 | 35738 ft | 434 kts | 272° |
| 2026-05-06 11:59 | 22.69264 | 48.03050 | 35746 ft | 434 kts | 272° |
| 2026-05-06 11:59 | 22.69811 | 47.96541 | 35746 ft | 433 kts | 272° |
| 2026-05-06 12:00 | 22.70351 | 47.90045 | 35748 ft | 433 kts | 272° |
| 2026-05-06 12:00 | 22.70888 | 47.83558 | 35748 ft | 432 kts | 272° |
| 2026-05-06 12:01 | 22.71423 | 47.77074 | 35745 ft | 432 kts | 272° |
| 2026-05-06 12:01 | 22.71951 | 47.70644 | 35752 ft | 432 kts | 272° |
| 2026-05-06 12:02 | 22.72480 | 47.64167 | 35762 ft | 432 kts | 272° |
| 2026-05-06 12:02 | 22.73007 | 47.57685 | 35763 ft | 432 kts | 272° |
| 2026-05-06 12:03 | 22.73532 | 47.51201 | 35767 ft | 432 kts | 272° |
| 2026-05-06 12:03 | 22.74053 | 47.44727 | 35772 ft | 431 kts | 272° |
| 2026-05-06 12:04 | 22.74571 | 47.38256 | 35777 ft | 431 kts | 272° |
| 2026-05-06 12:04 | 22.75087 | 47.31787 | 35779 ft | 431 kts | 272° |
| 2026-05-06 12:05 | 22.75599 | 47.25322 | 35789 ft | 431 kts | 272° |
| 2026-05-06 12:05 | 22.76109 | 47.18860 | 35788 ft | 430 kts | 272° |
| 2026-05-06 12:06 | 22.76623 | 47.12390 | 35798 ft | 430 kts | 272° |
| 2026-05-06 12:06 | 22.77141 | 47.05925 | 35810 ft | 430 kts | 272° |
| 2026-05-06 12:07 | 22.77657 | 46.99465 | 35807 ft | 430 kts | 272° |
| 2026-05-06 12:07 | 22.78165 | 46.93048 | 35809 ft | 430 kts | 272° |
| 2026-05-06 12:08 | 22.78676 | 46.86550 | 35810 ft | 429 kts | 272° |
| 2026-05-06 12:08 | 22.79177 | 46.80150 | 35818 ft | 429 kts | 272° |
| 2026-05-06 12:09 | 22.79679 | 46.73710 | 35820 ft | 428 kts | 271° |
| 2026-05-06 12:09 | 22.80177 | 46.67281 | 35825 ft | 428 kts | 271° |
| 2026-05-06 12:10 | 22.80673 | 46.60852 | 35829 ft | 428 kts | 271° |
| 2026-05-06 12:10 | 22.81165 | 46.54430 | 35841 ft | 428 kts | 271° |
| 2026-05-06 12:11 | 22.81655 | 46.48008 | 35864 ft | 428 kts | 271° |
| 2026-05-06 12:11 | 22.82144 | 46.41574 | 35846 ft | 428 kts | 271° |
| 2026-05-06 12:12 | 22.82625 | 46.35157 | 35844 ft | 427 kts | 271° |
| 2026-05-06 12:12 | 22.83099 | 46.28740 | 35856 ft | 427 kts | 271° |
| 2026-05-06 12:13 | 22.83569 | 46.22328 | 35852 ft | 426 kts | 271° |
| 2026-05-06 12:13 | 22.84037 | 46.15926 | 35853 ft | 426 kts | 271° |
| 2026-05-06 12:14 | 22.84503 | 46.09521 | 35857 ft | 426 kts | 271° |
| 2026-05-06 12:14 | 22.84966 | 46.03105 | 35856 ft | 427 kts | 271° |
| 2026-05-06 12:15 | 22.85428 | 45.96680 | 35855 ft | 428 kts | 271° |
| 2026-05-06 12:15 | 22.85886 | 45.90280 | 35868 ft | 428 kts | 271° |
| 2026-05-06 12:16 | 22.86344 | 45.83844 | 35856 ft | 428 kts | 271° |
| 2026-05-06 12:16 | 22.86799 | 45.77408 | 35858 ft | 427 kts | 271° |
| 2026-05-06 12:17 | 22.87251 | 45.70978 | 35856 ft | 427 kts | 271° |
| 2026-05-06 12:17 | 22.87699 | 45.64566 | 35871 ft | 426 kts | 271° |
| 2026-05-06 12:18 | 22.88145 | 45.58153 | 35875 ft | 426 kts | 271° |
| 2026-05-06 12:18 | 22.88587 | 45.51750 | 35875 ft | 426 kts | 271° |
| 2026-05-06 12:19 | 22.88952 | 45.46430 | 35883 ft | 425 kts | 271° |
| 2026-05-06 12:19 | 22.89389 | 45.40032 | 35888 ft | 425 kts | 271° |
| 2026-05-06 12:20 | 22.89823 | 45.33658 | 35894 ft | 425 kts | 271° |
| 2026-05-06 12:20 | 22.90254 | 45.27276 | 35888 ft | 424 kts | 270° |
| 2026-05-06 12:21 | 22.90681 | 45.20905 | 35892 ft | 423 kts | 270° |
| 2026-05-06 12:21 | 22.91106 | 45.14547 | 35894 ft | 422 kts | 270° |
| 2026-05-06 12:22 | 22.91528 | 45.08193 | 35896 ft | 422 kts | 270° |
| 2026-05-06 12:22 | 22.91944 | 45.01886 | 35901 ft | 421 kts | 270° |
| 2026-05-06 12:23 | 22.92355 | 44.95630 | 35900 ft | 421 kts | 270° |
| 2026-05-06 12:23 | 22.92766 | 44.89346 | 35893 ft | 422 kts | 270° |
| 2026-05-06 12:24 | 22.93176 | 44.83032 | 35902 ft | 422 kts | 270° |
| 2026-05-06 12:24 | 22.93587 | 44.76671 | 35904 ft | 423 kts | 270° |
| 2026-05-06 12:25 | 22.93988 | 44.70426 | 35899 ft | 423 kts | 270° |
| 2026-05-06 12:25 | 22.95039 | 44.64101 | 35898 ft | 431 kts | 284° |
| 2026-05-06 12:26 | 22.96985 | 44.57938 | 35899 ft | 432 kts | 284° |
| 2026-05-06 12:26 | 22.98928 | 44.51778 | 35900 ft | 432 kts | 284° |
| 2026-05-06 12:27 | 23.00849 | 44.45598 | 35896 ft | 432 kts | 283° |
| 2026-05-06 12:27 | 23.02753 | 44.39423 | 35905 ft | 431 kts | 283° |
| 2026-05-06 12:28 | 23.04650 | 44.33253 | 35895 ft | 431 kts | 283° |
| 2026-05-06 12:28 | 23.06540 | 44.27098 | 35890 ft | 430 kts | 283° |
| 2026-05-06 12:29 | 23.08430 | 44.20935 | 35905 ft | 429 kts | 283° |
| 2026-05-06 12:29 | 23.10299 | 44.14830 | 35884 ft | 429 kts | 283° |
| 2026-05-06 12:30 | 23.12176 | 44.08689 | 35896 ft | 428 kts | 283° |
| 2026-05-06 12:30 | 23.14047 | 44.02558 | 35912 ft | 427 kts | 283° |
| 2026-05-06 12:31 | 23.15915 | 43.96431 | 35892 ft | 427 kts | 283° |
| 2026-05-06 12:31 | 23.17777 | 43.90310 | 35898 ft | 426 kts | 283° |
| 2026-05-06 12:32 | 23.19627 | 43.84221 | 35895 ft | 426 kts | 283° |
| 2026-05-06 12:32 | 23.21478 | 43.78118 | 35902 ft | 425 kts | 282° |
| 2026-05-06 12:33 | 23.23329 | 43.72008 | 35912 ft | 425 kts | 282° |
| 2026-05-06 12:33 | 23.25174 | 43.65905 | 35918 ft | 425 kts | 283° |
| 2026-05-06 12:34 | 23.27016 | 43.59805 | 35925 ft | 425 kts | 282° |
| 2026-05-06 12:34 | 23.28856 | 43.53696 | 35921 ft | 425 kts | 282° |
| 2026-05-06 12:35 | 23.30692 | 43.47587 | 35933 ft | 425 kts | 282° |
| 2026-05-06 12:35 | 23.32523 | 43.41481 | 35953 ft | 424 kts | 282° |
| 2026-05-06 12:36 | 23.34339 | 43.35418 | 35942 ft | 424 kts | 282° |
| 2026-05-06 12:36 | 23.36161 | 43.29325 | 35947 ft | 423 kts | 282° |
| 2026-05-06 12:37 | 23.37977 | 43.23243 | 35955 ft | 422 kts | 282° |
| 2026-05-06 12:37 | 23.39774 | 43.17213 | 35969 ft | 422 kts | 281° |
| 2026-05-06 12:38 | 23.41578 | 43.11147 | 35972 ft | 421 kts | 281° |
| 2026-05-06 12:38 | 23.43251 | 43.05486 | 35979 ft | 421 kts | 281° |
| 2026-05-06 12:39 | 23.45019 | 42.99491 | 36002 ft | 421 kts | 281° |
| 2026-05-06 12:39 | 23.46731 | 42.93680 | 35988 ft | 421 kts | 281° |
| 2026-05-06 12:40 | 23.48496 | 42.87681 | 35990 ft | 421 kts | 281° |
| 2026-05-06 12:40 | 23.50258 | 42.81685 | 35996 ft | 421 kts | 281° |
| 2026-05-06 12:41 | 23.52005 | 42.75729 | 35998 ft | 420 kts | 281° |
| 2026-05-06 12:41 | 23.53773 | 42.69732 | 35996 ft | 420 kts | 281° |
| 2026-05-06 12:42 | 23.55519 | 42.63824 | 36004 ft | 420 kts | 281° |
| 2026-05-06 12:42 | 23.57298 | 42.57793 | 36009 ft | 420 kts | 281° |
| 2026-05-06 12:43 | 23.59071 | 42.51765 | 35999 ft | 420 kts | 281° |
| 2026-05-06 12:43 | 23.60831 | 42.45775 | 36001 ft | 420 kts | 281° |
| 2026-05-06 12:44 | 23.62551 | 42.39909 | 36015 ft | 420 kts | 281° |
| 2026-05-06 12:44 | 23.64328 | 42.33839 | 36000 ft | 420 kts | 281° |
| 2026-05-06 12:45 | 23.66099 | 42.27777 | 35990 ft | 419 kts | 280° |
| 2026-05-06 12:46 | 23.68689 | 42.18799 | 36008 ft | 418 kts | 280° |
| 2026-05-06 12:46 | 23.70429 | 42.12742 | 35996 ft | 418 kts | 280° |
| 2026-05-06 12:47 | 23.72167 | 42.06691 | 35984 ft | 418 kts | 280° |
| 2026-05-06 12:47 | 23.73903 | 42.00640 | 35980 ft | 417 kts | 280° |
| 2026-05-06 12:48 | 23.75647 | 41.94598 | 35986 ft | 417 kts | 280° |
| 2026-05-06 12:48 | 23.77404 | 41.88568 | 35978 ft | 417 kts | 280° |
| 2026-05-06 12:49 | 23.79155 | 41.82538 | 35975 ft | 417 kts | 280° |
| 2026-05-06 12:49 | 23.80899 | 41.76513 | 36037 ft | 419 kts | 280° |
| 2026-05-06 12:49 | 23.81773 | 41.73480 | 36250 ft | 419 kts | 280° |
| 2026-05-06 12:50 | 23.82644 | 41.70451 | 36536 ft | 417 kts | 280° |
| 2026-05-06 12:50 | 23.83506 | 41.67450 | 36844 ft | 415 kts | 279° |
| 2026-05-06 12:50 | 23.84367 | 41.64451 | 37120 ft | 413 kts | 279° |
| 2026-05-06 12:50 | 23.85225 | 41.61455 | 37324 ft | 414 kts | 279° |
| 2026-05-06 12:51 | 23.86087 | 41.58446 | 37522 ft | 414 kts | 279° |
| 2026-05-06 12:51 | 23.86946 | 41.55445 | 37766 ft | 414 kts | 279° |
| 2026-05-06 12:51 | 23.87801 | 41.52456 | 37994 ft | 413 kts | 279° |
| 2026-05-06 12:52 | 23.89505 | 41.46475 | 37973 ft | 415 kts | 279° |
| 2026-05-06 12:52 | 23.91214 | 41.40481 | 37980 ft | 412 kts | 279° |
| 2026-05-06 12:53 | 23.92842 | 41.34758 | 37987 ft | 409 kts | 279° |
| 2026-05-06 12:53 | 23.94527 | 41.28819 | 37967 ft | 408 kts | 279° |
| 2026-05-06 12:54 | 23.96200 | 41.22916 | 37963 ft | 406 kts | 279° |
| 2026-05-06 12:54 | 23.97864 | 41.17031 | 37962 ft | 405 kts | 279° |
| 2026-05-06 12:55 | 23.99482 | 41.11296 | 37974 ft | 405 kts | 279° |
| 2026-05-06 12:55 | 24.01130 | 41.05450 | 37961 ft | 406 kts | 279° |
| 2026-05-06 12:56 | 24.02793 | 40.99539 | 37952 ft | 407 kts | 279° |
| 2026-05-06 12:56 | 24.04458 | 40.93614 | 37947 ft | 408 kts | 279° |
| 2026-05-06 12:57 | 24.06125 | 40.87667 | 37950 ft | 410 kts | 279° |
| 2026-05-06 12:57 | 24.07796 | 40.81693 | 37945 ft | 411 kts | 279° |
| 2026-05-06 12:58 | 24.09466 | 40.75715 | 37940 ft | 411 kts | 279° |
| 2026-05-06 12:58 | 24.11136 | 40.69728 | 37940 ft | 411 kts | 279° |
| 2026-05-06 12:59 | 24.12791 | 40.63779 | 37942 ft | 411 kts | 279° |
| 2026-05-06 12:59 | 24.14456 | 40.57791 | 37939 ft | 411 kts | 279° |
| 2026-05-06 13:00 | 24.16159 | 40.51811 | 37937 ft | 414 kts | 282° |
| 2026-05-06 13:00 | 24.18727 | 40.46080 | 37961 ft | 422 kts | 289° |
| 2026-05-06 13:01 | 24.21411 | 40.40566 | 37940 ft | 421 kts | 289° |
| 2026-05-06 13:01 | 24.24192 | 40.34799 | 37930 ft | 420 kts | 289° |
| 2026-05-06 13:02 | 24.26899 | 40.29141 | 37932 ft | 419 kts | 289° |
| 2026-05-06 13:02 | 24.29595 | 40.23488 | 37950 ft | 418 kts | 288° |
| 2026-05-06 13:03 | 24.32283 | 40.17842 | 37934 ft | 417 kts | 288° |
| 2026-05-06 13:03 | 24.34962 | 40.12210 | 37930 ft | 416 kts | 288° |
| 2026-05-06 13:04 | 24.37619 | 40.06618 | 37928 ft | 415 kts | 288° |
| 2026-05-06 13:04 | 24.40283 | 40.01003 | 37946 ft | 415 kts | 288° |
| 2026-05-06 13:05 | 24.42512 | 39.96299 | 37931 ft | 415 kts | 288° |
| 2026-05-06 13:05 | 24.45603 | 39.89772 | 37916 ft | 415 kts | 288° |
| 2026-05-06 13:06 | 24.48260 | 39.84151 | 37921 ft | 414 kts | 288° |
| 2026-05-06 13:06 | 24.50468 | 39.79477 | 37931 ft | 415 kts | 288° |
| 2026-05-06 13:07 | 24.53163 | 39.73866 | 37907 ft | 420 kts | 293° |
| 2026-05-06 13:07 | 24.56950 | 39.68808 | 37908 ft | 439 kts | 306° |
| 2026-05-06 13:08 | 24.61870 | 39.64632 | 37937 ft | 450 kts | 314° |
| 2026-05-06 13:08 | 24.66976 | 39.60650 | 37935 ft | 450 kts | 314° |
| 2026-05-06 13:09 | 24.72061 | 39.56651 | 37946 ft | 449 kts | 313° |
| 2026-05-06 13:09 | 24.77123 | 39.52619 | 37929 ft | 449 kts | 313° |
| 2026-05-06 13:10 | 24.82156 | 39.48591 | 37925 ft | 449 kts | 313° |
| 2026-05-06 13:10 | 24.87206 | 39.44544 | 37936 ft | 449 kts | 313° |
| 2026-05-06 13:11 | 24.92250 | 39.40500 | 37928 ft | 448 kts | 313° |
| 2026-05-06 13:11 | 24.97274 | 39.36468 | 37933 ft | 448 kts | 313° |
| 2026-05-06 13:12 | 25.02323 | 39.32411 | 37943 ft | 448 kts | 313° |
| 2026-05-06 13:12 | 25.07361 | 39.28360 | 37933 ft | 448 kts | 313° |
| 2026-05-06 13:13 | 25.12362 | 39.24334 | 37937 ft | 448 kts | 313° |
| 2026-05-06 13:13 | 25.17394 | 39.20280 | 37945 ft | 447 kts | 313° |
| 2026-05-06 13:14 | 25.22160 | 39.15976 | 37946 ft | 433 kts | 302° |
| 2026-05-06 13:14 | 25.24042 | 39.13442 | 37935 ft | 420 kts | 293° |
| 2026-05-06 13:14 | 25.25623 | 39.10745 | 37963 ft | 419 kts | 292° |
| 2026-05-06 13:15 | 25.28756 | 39.05302 | 37947 ft | 420 kts | 292° |
| 2026-05-06 13:15 | 25.31914 | 38.99846 | 37945 ft | 423 kts | 292° |
| 2026-05-06 13:16 | 25.35102 | 38.94374 | 37933 ft | 424 kts | 293° |
| 2026-05-06 13:16 | 25.38301 | 38.88897 | 37957 ft | 424 kts | 293° |
| 2026-05-06 13:17 | 25.41499 | 38.83417 | 37919 ft | 424 kts | 293° |
| 2026-05-06 13:17 | 25.44689 | 38.77946 | 37908 ft | 423 kts | 293° |
| 2026-05-06 13:18 | 25.47870 | 38.72482 | 37910 ft | 422 kts | 293° |
| 2026-05-06 13:18 | 25.51038 | 38.67034 | 37898 ft | 421 kts | 293° |
| 2026-05-06 13:19 | 25.54200 | 38.61587 | 37897 ft | 420 kts | 293° |
| 2026-05-06 13:19 | 25.57340 | 38.56171 | 37897 ft | 420 kts | 293° |
| 2026-05-06 13:20 | 25.60473 | 38.50763 | 37896 ft | 420 kts | 293° |
| 2026-05-06 13:20 | 25.63625 | 38.45315 | 37891 ft | 420 kts | 293° |
| 2026-05-06 13:21 | 25.66775 | 38.39863 | 37891 ft | 420 kts | 293° |
| 2026-05-06 13:21 | 25.69927 | 38.34403 | 37897 ft | 421 kts | 293° |
| 2026-05-06 13:22 | 25.73079 | 38.28937 | 37896 ft | 421 kts | 293° |
| 2026-05-06 13:22 | 25.76231 | 38.23464 | 37884 ft | 421 kts | 293° |
| 2026-05-06 13:23 | 25.79369 | 38.18011 | 37899 ft | 419 kts | 294° |
| 2026-05-06 13:23 | 25.82508 | 38.12546 | 37880 ft | 419 kts | 294° |
| 2026-05-06 13:24 | 25.85641 | 38.07085 | 37885 ft | 420 kts | 294° |
| 2026-05-06 13:24 | 25.88763 | 38.01638 | 37905 ft | 421 kts | 294° |
| 2026-05-06 13:25 | 25.91912 | 37.96136 | 37905 ft | 423 kts | 294° |
| 2026-05-06 13:25 | 25.95075 | 37.90600 | 37916 ft | 425 kts | 294° |
| 2026-05-06 13:26 | 25.98224 | 37.85093 | 37922 ft | 424 kts | 293° |
| 2026-05-06 13:26 | 26.00593 | 37.79278 | 37926 ft | 408 kts | 280° |
| 2026-05-06 13:27 | 26.01636 | 37.73171 | 37933 ft | 400 kts | 272° |
| 2026-05-06 13:27 | 26.02435 | 37.67048 | 37936 ft | 400 kts | 272° |
| 2026-05-06 13:28 | 26.03257 | 37.60925 | 37937 ft | 400 kts | 273° |
| 2026-05-06 13:28 | 26.04090 | 37.54808 | 37933 ft | 400 kts | 272° |
| 2026-05-06 13:29 | 26.04913 | 37.48708 | 37930 ft | 399 kts | 272° |
| 2026-05-06 13:29 | 26.05725 | 37.42584 | 37924 ft | 401 kts | 273° |
| 2026-05-06 13:30 | 26.06544 | 37.36430 | 37927 ft | 403 kts | 273° |
| 2026-05-06 13:30 | 26.07362 | 37.30269 | 37923 ft | 404 kts | 273° |
| 2026-05-06 13:31 | 26.08181 | 37.24080 | 37927 ft | 404 kts | 273° |
| 2026-05-06 13:31 | 26.08997 | 37.17875 | 37930 ft | 406 kts | 273° |
| 2026-05-06 13:32 | 26.09814 | 37.11648 | 37920 ft | 407 kts | 273° |
| 2026-05-06 13:32 | 26.10628 | 37.05422 | 37911 ft | 407 kts | 273° |
| 2026-05-06 13:33 | 26.11439 | 36.99196 | 37927 ft | 407 kts | 273° |
| 2026-05-06 13:33 | 26.12248 | 36.92958 | 37911 ft | 407 kts | 273° |
| 2026-05-06 13:34 | 26.13055 | 36.86723 | 37897 ft | 407 kts | 273° |
| 2026-05-06 13:34 | 26.13853 | 36.80536 | 37902 ft | 406 kts | 273° |
| 2026-05-06 13:35 | 26.14657 | 36.74276 | 37935 ft | 406 kts | 273° |
| 2026-05-06 13:35 | 26.15446 | 36.68110 | 37918 ft | 406 kts | 273° |
| 2026-05-06 13:36 | 26.16244 | 36.61856 | 37907 ft | 406 kts | 273° |
| 2026-05-06 13:36 | 26.17035 | 36.55636 | 37913 ft | 406 kts | 273° |
| 2026-05-06 13:37 | 26.18612 | 36.49552 | 37939 ft | 417 kts | 289° |
| 2026-05-06 13:37 | 26.21843 | 36.44092 | 37908 ft | 432 kts | 305° |
| 2026-05-06 13:38 | 26.26043 | 36.39270 | 37913 ft | 434 kts | 307° |
| 2026-05-06 13:38 | 26.30289 | 36.34494 | 37923 ft | 433 kts | 307° |
| 2026-05-06 13:39 | 26.34498 | 36.29692 | 37914 ft | 432 kts | 306° |
| 2026-05-06 13:39 | 26.38666 | 36.24892 | 37924 ft | 431 kts | 306° |
| 2026-05-06 13:40 | 26.42830 | 36.20078 | 37912 ft | 430 kts | 306° |
| 2026-05-06 13:40 | 26.46977 | 36.15279 | 37911 ft | 429 kts | 306° |
| 2026-05-06 13:41 | 26.51118 | 36.10484 | 37914 ft | 428 kts | 306° |
| 2026-05-06 13:41 | 26.55248 | 36.05695 | 37911 ft | 428 kts | 306° |
| 2026-05-06 13:42 | 26.59345 | 36.00939 | 37918 ft | 427 kts | 306° |
| 2026-05-06 13:42 | 26.63460 | 35.96158 | 37918 ft | 427 kts | 306° |
| 2026-05-06 13:43 | 26.67575 | 35.91371 | 37930 ft | 427 kts | 306° |
| 2026-05-06 13:43 | 26.71693 | 35.86574 | 37927 ft | 427 kts | 306° |
| 2026-05-06 13:44 | 26.75809 | 35.81776 | 37919 ft | 428 kts | 306° |
| 2026-05-06 13:44 | 26.79929 | 35.76969 | 37921 ft | 428 kts | 306° |
| 2026-05-06 13:45 | 26.84056 | 35.72149 | 37931 ft | 428 kts | 306° |
| 2026-05-06 13:45 | 26.90228 | 35.64928 | 37925 ft | 429 kts | 306° |
| 2026-05-06 13:46 | 26.94238 | 35.60230 | 37929 ft | 429 kts | 306° |
| 2026-05-06 13:46 | 26.98368 | 35.55385 | 38115 ft | 430 kts | 306° |
| 2026-05-06 13:47 | 27.00422 | 35.52976 | 38421 ft | 428 kts | 306° |
| 2026-05-06 13:47 | 27.02456 | 35.50589 | 38710 ft | 425 kts | 306° |
| 2026-05-06 13:47 | 27.04495 | 35.48195 | 38984 ft | 424 kts | 306° |
| 2026-05-06 13:47 | 27.06529 | 35.45803 | 39146 ft | 424 kts | 306° |
| 2026-05-06 13:48 | 27.08563 | 35.43407 | 39260 ft | 425 kts | 306° |
| 2026-05-06 13:48 | 27.10604 | 35.41002 | 39406 ft | 425 kts | 306° |
| 2026-05-06 13:48 | 27.12636 | 35.38609 | 39582 ft | 425 kts | 306° |
| 2026-05-06 13:48 | 27.14674 | 35.36207 | 39751 ft | 425 kts | 306° |
| 2026-05-06 13:49 | 27.16709 | 35.33807 | 39879 ft | 424 kts | 306° |
| 2026-05-06 13:49 | 27.18751 | 35.31397 | 39918 ft | 426 kts | 306° |
| 2026-05-06 13:49 | 27.22847 | 35.26558 | 39927 ft | 427 kts | 306° |
| 2026-05-06 13:50 | 27.26167 | 35.22635 | 39930 ft | 426 kts | 306° |
| 2026-05-06 13:50 | 27.30260 | 35.17793 | 39922 ft | 425 kts | 306° |
| 2026-05-06 13:51 | 27.34684 | 35.12552 | 39920 ft | 424 kts | 306° |
| 2026-05-06 13:51 | 27.38734 | 35.07747 | 39920 ft | 423 kts | 306° |
| 2026-05-06 13:52 | 27.42121 | 35.03724 | 39930 ft | 423 kts | 306° |
| 2026-05-06 13:52 | 27.46153 | 34.98930 | 39934 ft | 422 kts | 307° |
| 2026-05-06 13:53 | 27.50191 | 34.94125 | 39925 ft | 422 kts | 307° |
| 2026-05-06 13:53 | 27.54338 | 34.89468 | 39923 ft | 425 kts | 310° |
| 2026-05-06 13:54 | 27.58682 | 34.84933 | 39923 ft | 426 kts | 310° |
| 2026-05-06 13:54 | 27.63031 | 34.80391 | 39927 ft | 426 kts | 310° |
| 2026-05-06 13:55 | 27.67357 | 34.75828 | 39927 ft | 426 kts | 310° |
| 2026-05-06 13:55 | 27.71679 | 34.71246 | 39945 ft | 426 kts | 310° |